Main page
METAR-TAF:

METAR-TAF

Airports :

Stewart Aerodrome

Stewart, British Columbia, Canada

latitude: 55-56N, longitude: 129-59W, elevation: 23 ft

Current weather observation

The report was made 4 hours and 8 minutes ago, at 01:00 UTC
Wind 3 mph from the South
Temperature 46°F
Humidity 81%
Pressure 29.80 in. Hg
Visibility: 15 miles
Overcast at a height of 4500 ft
light rain

METAR: CZST 240100Z 18003KT 15SM -RA OVC045 08/05 A2980 RMK SC8 PWR OUTAGE CONT/LAST STFD OBS/NEXT 241300Z/ WIND EST SLP093

Time: 22:08 (05:08 UTC)


TAF: missing

Weather observations and forecasts of more than 4000 airports (METAR and TAF reports).

The available stations are represented by yellow and red dots on the map.

Hover mouse over dot to see the name of the station.

Then click to see weather observations and forecasts.

To change the map : click on the green buttons with a black cross to zoom in, on the green button with a dash to zoom out, or on the green arrows for adjacent maps.


METAR-TAF: